createdAt,value
2022-11-04T00:00:29.631Z,99453.25
2022-11-04T00:03:00.136Z,99441.22
2022-11-04T00:05:29.865Z,99450.41
2022-11-04T00:08:14.708Z,99401.16
2022-11-04T00:10:56.955Z,99429.25
2022-11-04T00:13:26.736Z,99461.50
2022-11-04T00:16:08.934Z,99476.00
2022-11-04T00:18:39.134Z,99427.66
2022-11-04T00:21:21.325Z,99489.66
2022-11-04T00:24:06.111Z,99482.84
2022-11-04T00:26:48.298Z,99485.41
2022-11-04T00:29:18.075Z,99473.53
2022-11-04T00:32:00.319Z,99482.13
2022-11-04T00:34:30.071Z,99479.66
2022-11-04T00:36:59.797Z,99493.25
2022-11-04T00:39:32.219Z,99477.91
2022-11-04T00:42:01.970Z,99489.03
2022-11-04T00:44:31.718Z,99461.91
2022-11-04T00:47:01.505Z,99469.56
2022-11-04T00:49:31.411Z,99456.88
2022-11-04T00:52:01.204Z,99488.25
2022-11-04T00:54:33.535Z,99468.56
2022-11-04T00:57:03.303Z,99477.03
2022-11-04T00:59:33.127Z,99449.84
2022-11-04T01:02:03.086Z,99469.44
2022-11-04T01:04:33.146Z,99464.34
2022-11-04T01:07:03.510Z,99479.72
2022-11-04T01:09:35.888Z,99497.63
2022-11-04T01:12:05.854Z,99512.16
2022-11-04T01:14:35.602Z,99490.88
2022-11-04T01:17:05.362Z,99500.97
2022-11-04T01:19:35.152Z,99492.41
2022-11-04T01:22:04.940Z,99477.75
2022-11-04T01:24:37.286Z,99478.72
2022-11-04T01:27:07.176Z,99486.38
2022-11-04T01:29:37.009Z,99476.34
2022-11-04T01:32:06.909Z,99489.19
2022-11-04T01:34:42.297Z,99495.16
2022-11-04T01:37:13.584Z,99464.56
2022-11-04T01:39:46.495Z,99482.44
2022-11-04T01:42:17.691Z,99495.16
2022-11-04T01:44:57.175Z,99505.38
2022-11-04T01:47:37.232Z,99516.47
2022-11-04T01:50:11.481Z,99509.72
2022-11-04T01:52:48.347Z,99513.88
2022-11-04T01:55:23.975Z,99511.31
2022-11-04T01:57:57.716Z,99522.38
2022-11-04T02:00:27.629Z,99482.38
2022-11-04T02:03:01.894Z,99518.97
2022-11-04T02:05:33.410Z,99519.78
2022-11-04T02:08:06.782Z,99528.28
2022-11-04T02:10:40.031Z,99518.06
2022-11-04T02:13:07.680Z,99514.75
2022-11-04T02:15:42.699Z,99524.00
2022-11-04T02:18:25.684Z,99530.81
2022-11-04T02:21:34.288Z,99557.19
2022-11-04T02:24:42.635Z,99536.94
2022-11-04T02:27:39.194Z,99571.03
2022-11-04T02:30:14.082Z,99575.16
2022-11-04T02:33:17.469Z,99576.88
2022-11-04T02:35:57.164Z,99575.22
2022-11-04T02:38:36.829Z,99580.34
2022-11-04T02:41:16.146Z,99602.47
2022-11-04T02:43:55.823Z,99602.53
2022-11-04T02:46:38.658Z,99584.66
2022-11-04T02:49:15.640Z,99551.53
2022-11-04T02:51:51.576Z,99565.16
2022-11-04T02:54:27.019Z,99569.44
2022-11-04T02:57:01.322Z,99568.56
2022-11-04T02:59:38.397Z,99568.53
2022-11-04T03:02:15.420Z,99574.47
2022-11-04T03:04:50.026Z,99560.84
2022-11-04T03:07:25.478Z,99571.13
2022-11-04T03:10:00.365Z,99587.38
2022-11-04T03:12:35.335Z,99582.22
2022-11-04T03:15:10.052Z,99590.75
2022-11-04T03:17:49.711Z,99586.47
2022-11-04T03:20:25.007Z,99588.22
2022-11-04T03:22:59.854Z,99607.78
2022-11-04T03:25:35.123Z,99605.22
2022-11-04T03:28:10.821Z,99569.53
2022-11-04T03:30:45.411Z,99608.72
2022-11-04T03:33:25.196Z,99634.28
2022-11-04T03:35:55.548Z,99642.81
2022-11-04T03:38:26.053Z,99652.16
2022-11-04T03:40:55.845Z,99663.25
2022-11-04T03:43:28.789Z,99646.25
2022-11-04T03:45:59.166Z,99611.34
2022-11-04T03:48:32.777Z,99665.78
2022-11-04T03:51:02.822Z,99678.59
2022-11-04T03:53:34.415Z,99675.19
2022-11-04T03:56:23.253Z,99681.13
2022-11-04T03:59:04.531Z,99666.69
2022-11-04T04:01:43.627Z,99695.66
2022-11-04T04:04:22.309Z,99704.13
2022-11-04T04:06:55.619Z,99699.88
2022-11-04T04:09:29.565Z,99712.66
2022-11-04T04:12:08.607Z,99708.41
2022-11-04T04:14:44.360Z,99714.34
2022-11-04T04:17:20.867Z,99716.06
2022-11-04T04:20:02.304Z,99701.56
2022-11-04T04:22:35.217Z,99714.34
2022-11-04T04:25:30.630Z,99706.72
2022-11-04T04:28:02.014Z,99734.84
2022-11-04T04:30:32.212Z,99734.84
2022-11-04T04:33:06.662Z,99727.19
2022-11-04T04:35:45.297Z,99733.16
2022-11-04T04:38:33.792Z,99727.19
2022-11-04T04:41:20.577Z,99726.34
2022-11-04T04:44:05.652Z,99688.81
2022-11-04T04:46:35.915Z,99732.28
2022-11-04T04:49:09.161Z,99733.09
2022-11-04T04:51:46.186Z,99739.09
2022-11-04T04:54:16.254Z,99740.81
2022-11-04T04:56:46.045Z,99705.00
2022-11-04T04:59:15.889Z,99728.84
2022-11-04T05:01:45.657Z,99743.34
2022-11-04T05:04:15.473Z,99715.22
2022-11-04T05:06:47.863Z,99737.34
2022-11-04T05:09:17.639Z,99725.38
2022-11-04T05:11:47.402Z,99731.31
2022-11-04T05:14:17.885Z,99745.81
2022-11-04T05:16:47.907Z,99753.50
2022-11-04T05:19:17.725Z,99761.19
2022-11-04T05:21:50.089Z,99775.63
2022-11-04T05:24:19.832Z,99774.78
2022-11-04T05:26:49.579Z,99781.63
2022-11-04T05:29:19.747Z,99756.91
2022-11-04T05:31:49.526Z,99802.97
2022-11-04T05:34:19.579Z,99762.91
2022-11-04T05:36:51.932Z,99814.06
2022-11-04T05:39:21.764Z,99809.81
2022-11-04T05:41:51.507Z,99804.72
2022-11-04T05:44:21.422Z,99802.97
2022-11-04T05:46:52.202Z,99797.06
2022-11-04T05:49:23.057Z,99802.16
2022-11-04T05:51:55.435Z,99797.03
2022-11-04T05:54:26.584Z,99812.38
2022-11-04T05:56:57.469Z,99800.44
2022-11-04T05:59:28.241Z,99820.91
2022-11-04T06:01:59.168Z,99835.38
2022-11-04T06:04:30.063Z,99813.25
2022-11-04T06:07:03.793Z,99787.66
2022-11-04T06:09:41.764Z,99823.47
2022-11-04T06:12:15.028Z,99808.97
2022-11-04T06:14:46.595Z,99792.78
2022-11-04T06:17:18.507Z,99801.28
2022-11-04T06:19:49.612Z,99803.00
2022-11-04T06:22:23.202Z,99826.00
2022-11-04T06:24:54.039Z,99851.50
2022-11-04T06:27:23.862Z,99847.22
2022-11-04T06:29:54.887Z,99841.28
2022-11-04T06:32:25.701Z,99849.72
2022-11-04T06:34:55.786Z,99861.69
2022-11-04T06:37:28.233Z,99810.38
2022-11-04T06:39:58.001Z,99866.63
2022-11-04T06:42:28.841Z,99879.28
2022-11-04T06:44:59.688Z,99874.09
2022-11-04T06:47:29.529Z,99877.53
2022-11-04T06:49:59.523Z,99839.13
2022-11-04T06:52:36.817Z,99861.34
2022-11-04T06:55:11.402Z,99884.47
2022-11-04T06:57:43.047Z,99889.53
2022-11-04T07:00:15.164Z,99840.00
2022-11-04T07:02:45.322Z,99897.25
2022-11-04T07:05:15.245Z,99915.22
2022-11-04T07:07:48.776Z,99902.44
2022-11-04T07:10:19.162Z,99907.59
2022-11-04T07:12:49.949Z,99888.06
2022-11-04T07:15:27.131Z,99879.56
2022-11-04T07:17:58.412Z,99911.13
2022-11-04T07:20:28.473Z,99895.75
2022-11-04T07:23:01.190Z,99896.59
2022-11-04T07:25:31.657Z,99901.69
2022-11-04T07:28:03.170Z,99922.13
2022-11-04T07:30:33.429Z,99918.75
2022-11-04T07:33:03.602Z,99930.66
2022-11-04T07:35:34.498Z,99935.78
2022-11-04T07:38:07.372Z,99929.03
2022-11-04T07:40:39.474Z,99906.00
2022-11-04T07:43:09.558Z,99916.25
2022-11-04T07:45:40.823Z,99926.50
2022-11-04T07:48:12.565Z,99928.22
2022-11-04T07:50:43.950Z,99934.19
2022-11-04T07:53:16.378Z,99936.72
2022-11-04T07:55:49.527Z,99920.50
2022-11-04T07:58:19.520Z,99936.72
2022-11-04T08:00:50.393Z,99922.25
2022-11-04T08:03:20.346Z,99939.31
2022-11-04T08:05:50.277Z,99938.50
2022-11-04T08:08:23.786Z,99943.63
2022-11-04T08:10:56.647Z,99945.28
2022-11-04T08:13:30.205Z,99955.47
2022-11-04T08:16:03.607Z,99954.63
2022-11-04T08:18:34.853Z,99948.56
2022-11-04T08:21:05.936Z,99963.94
2022-11-04T08:23:40.554Z,99964.84
2022-11-04T08:26:12.730Z,99982.75
2022-11-04T08:28:43.606Z,99963.94
2022-11-04T08:31:17.688Z,99965.63
2022-11-04T08:33:49.711Z,99987.84
2022-11-04T08:36:22.754Z,99984.47
2022-11-04T08:38:55.606Z,99985.31
2022-11-04T08:41:29.164Z,99983.56
2022-11-04T08:44:01.145Z,100001.53
2022-11-04T08:46:33.738Z,99982.78
2022-11-04T08:49:09.482Z,99997.28
2022-11-04T08:51:43.743Z,99995.63
2022-11-04T08:54:16.149Z,100001.63
2022-11-04T08:56:46.247Z,100003.28
2022-11-04T08:59:17.324Z,100005.81
2022-11-04T09:01:48.789Z,99999.84
2022-11-04T09:04:19.782Z,100004.94
2022-11-04T09:06:51.112Z,99968.28
2022-11-04T09:09:24.673Z,100000.72
2022-11-04T09:11:55.128Z,99999.91
2022-11-04T09:14:24.928Z,100000.78
2022-11-04T09:16:55.701Z,100011.09
2022-11-04T09:19:25.635Z,99978.59
2022-11-04T09:21:58.931Z,100004.25
2022-11-04T09:24:32.682Z,100007.69
2022-11-04T09:27:03.505Z,100010.22
2022-11-04T09:29:34.014Z,100002.50
2022-11-04T09:32:04.144Z,100005.00
2022-11-04T09:34:35.032Z,99986.25
2022-11-04T09:37:04.880Z,100022.97
2022-11-04T09:39:38.457Z,100023.00
2022-11-04T09:42:27.006Z,100022.19
2022-11-04T09:45:21.059Z,100016.22
2022-11-04T09:47:55.610Z,100031.63
2022-11-04T09:50:28.339Z,100003.44
2022-11-04T09:53:08.397Z,100035.00
2022-11-04T09:55:49.652Z,100030.78
2022-11-04T09:58:20.757Z,100029.91
2022-11-04T10:00:59.734Z,100023.09
2022-11-04T10:03:50.969Z,99984.69
2022-11-04T10:06:33.385Z,100035.03
2022-11-04T10:09:28.638Z,100016.28
2022-11-04T10:12:09.451Z,100027.34
2022-11-04T10:15:08.130Z,100018.81
2022-11-04T10:18:01.251Z,100015.41
2022-11-04T10:20:44.911Z,99978.72
2022-11-04T10:23:25.575Z,99970.19
2022-11-04T10:26:04.668Z,100018.81
2022-11-04T10:28:43.887Z,100028.19
2022-11-04T10:31:18.640Z,100013.66
2022-11-04T10:33:54.638Z,100034.16
2022-11-04T10:36:25.661Z,100032.47
2022-11-04T10:38:58.897Z,100036.72
2022-11-04T10:41:36.011Z,100040.16
2022-11-04T10:44:19.675Z,100031.63
2022-11-04T10:46:59.370Z,100029.91
2022-11-04T10:50:06.771Z,100056.38
2022-11-04T10:52:37.946Z,100064.06
2022-11-04T10:55:19.670Z,100070.06
2022-11-04T10:57:49.741Z,100074.31
2022-11-04T11:00:40.871Z,100087.09
2022-11-04T11:03:33.091Z,100089.66
2022-11-04T11:06:17.417Z,100091.41
2022-11-04T11:08:49.699Z,100083.72
2022-11-04T11:11:38.456Z,100101.63
2022-11-04T11:14:19.517Z,100083.72
2022-11-04T11:16:53.012Z,100072.63
2022-11-04T11:19:27.355Z,100065.78
2022-11-04T11:22:00.169Z,100090.53
2022-11-04T11:24:34.661Z,100063.19
2022-11-04T11:27:16.811Z,100066.59
2022-11-04T11:29:56.179Z,100050.38
2022-11-04T11:32:35.558Z,100081.94
2022-11-04T11:35:11.667Z,100080.25
2022-11-04T11:37:42.806Z,100042.69
2022-11-04T11:40:27.722Z,100074.25
2022-11-04T11:43:00.093Z,100063.97
2022-11-04T11:45:31.570Z,100053.75
2022-11-04T11:48:04.122Z,100075.09
2022-11-04T11:50:35.805Z,100070.84
2022-11-04T11:53:19.800Z,100017.88
2022-11-04T11:55:56.460Z,100041.78
2022-11-04T12:01:33.220Z,100080.09
2022-11-04T12:10:18.192Z,100065.59
2022-11-04T12:13:07.014Z,100055.41
2022-11-04T12:15:57.096Z,100063.13
2022-11-04T12:18:43.110Z,100067.44
2022-11-04T12:21:21.223Z,100073.44
2022-11-04T12:23:59.217Z,100042.69
2022-11-04T12:26:37.960Z,100038.41
2022-11-04T12:29:27.510Z,100066.59
2022-11-04T12:32:07.813Z,100073.41
2022-11-04T12:34:49.259Z,100074.28
2022-11-04T12:37:35.850Z,100081.13
2022-11-04T12:40:15.081Z,100067.47
2022-11-04T12:43:07.571Z,100085.38
2022-11-04T12:45:51.901Z,100102.50
2022-11-04T12:48:38.122Z,100099.94
2022-11-04T12:51:14.654Z,100083.72
2022-11-04T12:54:17.815Z,100111.03
2022-11-04T12:56:57.538Z,100099.03
2022-11-04T12:59:55.485Z,100115.28
2022-11-04T13:02:31.321Z,100081.94
2022-11-04T13:05:06.725Z,100117.78
2022-11-04T13:07:44.101Z,100104.09
2022-11-04T13:10:25.732Z,100116.09
2022-11-04T13:13:02.045Z,100115.19
2022-11-04T13:15:37.563Z,100123.78
2022-11-04T13:18:10.941Z,100102.44
2022-11-04T13:20:47.297Z,100125.47
2022-11-04T13:23:23.154Z,100112.63
2022-11-04T13:25:58.984Z,100117.72
2022-11-04T13:28:29.877Z,100129.56
2022-11-04T13:31:07.686Z,100115.94
2022-11-04T13:33:48.971Z,100135.50
2022-11-04T13:36:31.068Z,100140.66
2022-11-04T13:39:04.795Z,100142.38
2022-11-04T13:41:55.837Z,100139.81
2022-11-04T13:44:30.850Z,100128.69
2022-11-04T13:47:07.102Z,100137.22
2022-11-04T13:49:39.357Z,100130.38
2022-11-04T13:52:14.882Z,100145.75
2022-11-04T13:54:49.423Z,100135.50
2022-11-04T13:57:25.778Z,100099.69
2022-11-04T14:00:22.789Z,100161.16
2022-11-04T14:02:58.265Z,100156.06
2022-11-04T14:05:48.739Z,100156.03
2022-11-04T14:08:21.792Z,100156.06
2022-11-04T14:11:10.537Z,100166.31
2022-11-04T14:14:04.880Z,100181.72
2022-11-04T14:16:46.195Z,100173.22
2022-11-04T14:19:58.647Z,100179.22
2022-11-04T14:22:35.356Z,100197.19
2022-11-04T14:25:23.252Z,100189.53
2022-11-04T14:27:55.900Z,100187.81
2022-11-04T14:30:52.168Z,100204.88
2022-11-04T14:33:30.608Z,100213.44
2022-11-04T14:36:18.885Z,100218.56
2022-11-04T14:38:55.943Z,100191.22
2022-11-04T14:41:48.898Z,100224.53
2022-11-04T14:44:24.058Z,100218.56
2022-11-04T14:47:01.487Z,100227.19
2022-11-04T14:49:41.176Z,100222.91
2022-11-04T14:52:23.890Z,100228.03
2022-11-04T14:54:59.377Z,100234.03
2022-11-04T14:57:32.691Z,100203.28
2022-11-04T15:00:23.124Z,100213.53
2022-11-04T15:03:10.176Z,100239.16
2022-11-04T15:05:46.687Z,100231.47
2022-11-04T15:08:31.986Z,100227.22
2022-11-04T15:11:11.318Z,100250.31
2022-11-04T15:13:51.563Z,100234.91
2022-11-04T15:16:25.737Z,100240.03
2022-11-04T15:19:01.309Z,100246.03
2022-11-04T15:21:32.245Z,100215.25
2022-11-04T15:24:03.527Z,100219.56
2022-11-04T15:26:36.720Z,100238.38
2022-11-04T15:29:13.509Z,100252.88
2022-11-04T15:31:55.760Z,100240.06
2022-11-04T15:34:31.281Z,100264.00
2022-11-04T15:37:05.574Z,100258.88
2022-11-04T15:39:40.551Z,100274.25
2022-11-04T15:42:29.942Z,100210.97
2022-11-04T15:45:00.811Z,100275.97
2022-11-04T15:47:31.710Z,100279.38
2022-11-04T15:50:24.512Z,100255.44
2022-11-04T15:52:58.438Z,100256.31
2022-11-04T15:55:35.022Z,100285.38
2022-11-04T15:58:05.366Z,100244.34
2022-11-04T16:00:35.376Z,100293.00
2022-11-04T16:03:07.708Z,100300.56
2022-11-04T16:05:42.588Z,100310.06
2022-11-04T16:08:22.642Z,100305.00
2022-11-04T16:10:54.121Z,100321.28
2022-11-04T16:13:28.979Z,100293.06
2022-11-04T16:16:10.993Z,100317.00
2022-11-04T16:18:44.493Z,100287.84
2022-11-04T16:21:26.644Z,100259.56
2022-11-04T16:24:02.976Z,100313.41
2022-11-04T16:26:37.573Z,100332.22
2022-11-04T16:29:11.731Z,100339.00
2022-11-04T16:31:42.776Z,100319.28
2022-11-04T16:34:15.572Z,100338.13
2022-11-04T16:36:49.475Z,100341.50
2022-11-04T16:39:19.302Z,100348.38
2022-11-04T16:41:50.156Z,100355.22
2022-11-04T16:44:23.415Z,100344.94
2022-11-04T16:46:54.323Z,100354.31
2022-11-04T16:49:25.258Z,100344.03
2022-11-04T16:52:03.388Z,100361.97
2022-11-04T16:54:34.249Z,100355.97
2022-11-04T16:57:06.974Z,100361.06
2022-11-04T16:59:39.256Z,100356.75
2022-11-04T17:02:23.173Z,100347.28
2022-11-04T17:04:54.991Z,100328.34
2022-11-04T17:07:47.354Z,100357.41
2022-11-04T17:10:22.046Z,100364.13
2022-11-04T17:12:52.096Z,100326.34
2022-11-04T17:15:23.210Z,100364.78
2022-11-04T17:17:54.248Z,100378.41
2022-11-04T17:20:25.338Z,100358.63
2022-11-04T17:22:58.847Z,100384.38
2022-11-04T17:25:32.301Z,100395.41
2022-11-04T17:28:03.241Z,100385.97
2022-11-04T17:30:34.203Z,100386.66
2022-11-04T17:33:06.725Z,100377.22
2022-11-04T17:35:40.577Z,100374.56
2022-11-04T17:38:14.201Z,100396.81
2022-11-04T17:40:56.717Z,100381.31
2022-11-04T17:43:39.613Z,100403.50
2022-11-04T17:46:23.215Z,100363.97
2022-11-04T17:48:54.110Z,100414.50
2022-11-04T17:51:25.302Z,100406.78
2022-11-04T17:53:58.885Z,100422.97
2022-11-04T17:56:30.807Z,100409.88
2022-11-04T17:59:04.251Z,100415.91
2022-11-04T18:01:37.907Z,100432.22
2022-11-04T18:04:10.966Z,100394.47
2022-11-04T18:06:42.408Z,100438.19
2022-11-04T18:09:17.279Z,100427.91
2022-11-04T18:12:01.687Z,100435.63
2022-11-04T18:14:33.256Z,100412.50
2022-11-04T18:17:05.697Z,100447.69
2022-11-04T18:19:35.561Z,100433.09
2022-11-04T18:22:06.546Z,100451.94
2022-11-04T18:24:40.877Z,100441.69
2022-11-04T18:27:13.314Z,100447.69
2022-11-04T18:29:44.346Z,100457.78
2022-11-04T18:32:15.279Z,100462.75
2022-11-04T18:34:47.197Z,100434.31
2022-11-04T18:37:18.219Z,100456.47
2022-11-04T18:39:51.846Z,100452.19
2022-11-04T18:42:23.328Z,100459.94
2022-11-04T18:44:55.183Z,100447.88
2022-11-04T18:47:26.887Z,100481.34
2022-11-04T18:49:58.974Z,100460.00
2022-11-04T18:52:29.845Z,100461.69
2022-11-04T18:55:02.466Z,100484.78
2022-11-04T18:57:33.606Z,100489.03
2022-11-04T19:00:04.829Z,100453.13
2022-11-04T19:02:35.812Z,100482.28
2022-11-04T19:05:07.669Z,100444.50
2022-11-04T19:07:38.626Z,100480.53
2022-11-04T19:10:12.276Z,100490.84
2022-11-04T19:12:55.989Z,100454.66
2022-11-04T19:15:31.087Z,100489.81
2022-11-04T19:18:02.064Z,100492.28
2022-11-04T19:20:33.400Z,100492.22
2022-11-04T19:23:04.497Z,100481.91
2022-11-04T19:25:41.280Z,100462.97
2022-11-04T19:28:34.607Z,100494.53
2022-11-04T19:31:05.681Z,100508.19
2022-11-04T19:33:38.341Z,100333.59
2022-11-04T19:36:10.580Z,100520.97
2022-11-04T19:38:41.686Z,100522.81
2022-11-04T19:41:32.186Z,100493.56
2022-11-04T19:44:04.988Z,100524.50
2022-11-04T19:46:37.388Z,100511.63
2022-11-04T19:49:08.311Z,100510.63
2022-11-04T19:51:38.700Z,100503.69
2022-11-04T19:54:09.796Z,100542.41
2022-11-04T19:56:43.987Z,100541.63
2022-11-04T19:59:16.117Z,100532.16
2022-11-04T20:01:47.404Z,100535.47
2022-11-04T20:04:18.475Z,100525.84
2022-11-04T20:06:50.460Z,100526.31
2022-11-04T20:09:22.388Z,100546.72
2022-11-04T20:12:08.438Z,100535.72
2022-11-04T20:14:39.271Z,100539.97
2022-11-04T20:17:09.752Z,100542.50
2022-11-04T20:19:39.701Z,100538.97
2022-11-04T20:22:10.609Z,100563.25
2022-11-04T20:24:40.537Z,100506.97
2022-11-04T20:27:15.206Z,100501.88
2022-11-04T20:29:46.373Z,100569.78
2022-11-04T20:32:16.367Z,100568.88
2022-11-04T20:34:47.558Z,100554.97
2022-11-04T20:37:18.567Z,100572.22
2022-11-04T20:39:50.185Z,100536.09
2022-11-04T20:42:22.866Z,100580.03
2022-11-04T20:44:53.700Z,100578.22
2022-11-04T20:47:23.520Z,100571.44
2022-11-04T20:49:53.436Z,100593.91
2022-11-04T20:52:26.817Z,100597.41
2022-11-04T20:54:56.646Z,100598.97
2022-11-04T20:57:29.576Z,100598.00
2022-11-04T20:59:59.542Z,100546.38
2022-11-04T21:02:30.224Z,100602.94
2022-11-04T21:05:00.362Z,100574.31
2022-11-04T21:07:30.138Z,100600.09
2022-11-04T21:09:59.978Z,100607.84
2022-11-04T21:12:32.480Z,100597.53
2022-11-04T21:15:02.316Z,100602.50
2022-11-04T21:17:38.981Z,100624.88
2022-11-04T21:20:11.197Z,100617.78
2022-11-04T21:22:40.954Z,100642.56
2022-11-04T21:25:11.352Z,100625.25
2022-11-04T21:27:44.448Z,100630.34
2022-11-04T21:30:15.246Z,100647.56
2022-11-04T21:32:45.022Z,100628.56
2022-11-04T21:35:14.883Z,100641.41
2022-11-04T21:37:44.860Z,100651.75
2022-11-04T21:40:16.242Z,100645.56
2022-11-04T21:42:48.819Z,100648.06
2022-11-04T21:45:18.831Z,100670.06
2022-11-04T21:47:48.733Z,100659.53
2022-11-04T21:50:18.934Z,100660.41
2022-11-04T21:52:48.920Z,100669.06
2022-11-04T21:55:18.751Z,100677.75
2022-11-04T21:57:51.307Z,100655.59
2022-11-04T22:00:21.301Z,100680.94
2022-11-04T22:02:53.508Z,100668.91
2022-11-04T22:05:23.834Z,100656.84
2022-11-04T22:08:11.670Z,100677.41
2022-11-04T22:10:41.435Z,100687.50
2022-11-04T22:13:13.834Z,100683.22
2022-11-04T22:15:56.070Z,100690.81
2022-11-04T22:18:25.882Z,100689.81
2022-11-04T22:20:56.130Z,100687.41
2022-11-04T22:23:26.289Z,100664.94
2022-11-04T22:25:56.074Z,100684.66
2022-11-04T22:28:28.512Z,100688.25
2022-11-04T22:30:58.346Z,100688.88
2022-11-04T22:33:31.747Z,100661.44
2022-11-04T22:36:02.301Z,100690.56
2022-11-04T22:38:33.463Z,100687.75
2022-11-04T22:41:05.937Z,100689.53
2022-11-04T22:43:38.347Z,100695.34
2022-11-04T22:46:11.177Z,100712.25
2022-11-04T22:48:40.921Z,100699.81
2022-11-04T22:51:11.881Z,100703.28
2022-11-04T22:53:42.003Z,100706.75
2022-11-04T22:56:13.615Z,100681.66
2022-11-04T22:58:45.958Z,100710.16
2022-11-04T23:01:17.942Z,100678.41
2022-11-04T23:03:47.899Z,100678.41
2022-11-04T23:06:18.040Z,100682.81
2022-11-04T23:08:47.913Z,100711.13
2022-11-04T23:11:33.292Z,100707.81
2022-11-04T23:14:20.870Z,100665.41
2022-11-04T23:17:17.082Z,100702.63
2022-11-04T23:19:47.270Z,100725.69
2022-11-04T23:22:29.480Z,100721.63
2022-11-04T23:25:09.880Z,100721.63
2022-11-04T23:27:54.739Z,100730.13
2022-11-04T23:30:28.487Z,100734.31
2022-11-04T23:32:59.879Z,100743.63
2022-11-04T23:35:44.035Z,100742.81
2022-11-04T23:38:14.568Z,100722.19
2022-11-04T23:41:05.102Z,100745.97
2022-11-04T23:43:32.368Z,100738.91
2022-11-04T23:46:17.374Z,100736.53
2022-11-04T23:48:59.714Z,100728.72
2022-11-04T23:51:44.596Z,100751.09
2022-11-04T23:54:26.965Z,100736.38
2022-11-04T23:57:09.198Z,100746.66
2022-11-04T23:59:53.782Z,100741.34
